sensor_id;sensor_type;location;lat;lon;timestamp;temperature;humidity
16970;DHT22;8601;48.718;8.992;2022-07-21T00:00:18;19.70;99.90
16970;DHT22;8601;48.718;8.992;2022-07-21T00:02:44;19.60;99.90
16970;DHT22;8601;48.718;8.992;2022-07-21T00:05:12;19.60;99.90
16970;DHT22;8601;48.718;8.992;2022-07-21T00:07:39;19.60;99.90
16970;DHT22;8601;48.718;8.992;2022-07-21T00:10:07;19.60;99.90
16970;DHT22;8601;48.718;8.992;2022-07-21T00:12:34;19.60;99.90
16970;DHT22;8601;48.718;8.992;2022-07-21T00:15:04;19.60;99.90
16970;DHT22;8601;48.718;8.992;2022-07-21T00:17:31;19.60;99.90
16970;DHT22;8601;48.718;8.992;2022-07-21T00:19:59;19.70;99.90
16970;DHT22;8601;48.718;8.992;2022-07-21T00:22:26;19.70;99.90
16970;DHT22;8601;48.718;8.992;2022-07-21T00:24:54;19.60;99.90
16970;DHT22;8601;48.718;8.992;2022-07-21T00:27:22;19.60;99.90
16970;DHT22;8601;48.718;8.992;2022-07-21T00:29:48;19.50;99.90
16970;DHT22;8601;48.718;8.992;2022-07-21T00:32:17;19.50;99.90
16970;DHT22;8601;48.718;8.992;2022-07-21T00:34:44;19.60;99.90
16970;DHT22;8601;48.718;8.992;2022-07-21T00:37:11;19.60;99.90
16970;DHT22;8601;48.718;8.992;2022-07-21T00:39:38;19.70;99.90
16970;DHT22;8601;48.718;8.992;2022-07-21T00:42:06;19.80;99.90
16970;DHT22;8601;48.718;8.992;2022-07-21T00:44:33;19.80;99.90
16970;DHT22;8601;48.718;8.992;2022-07-21T00:47:00;19.90;99.90
16970;DHT22;8601;48.718;8.992;2022-07-21T00:49:28;19.90;99.90
16970;DHT22;8601;48.718;8.992;2022-07-21T00:51:56;19.80;99.90
16970;DHT22;8601;48.718;8.992;2022-07-21T00:54:23;19.80;99.90
16970;DHT22;8601;48.718;8.992;2022-07-21T00:56:50;19.80;99.90
16970;DHT22;8601;48.718;8.992;2022-07-21T00:59:17;19.80;99.90
16970;DHT22;8601;48.718;8.992;2022-07-21T01:01:44;19.80;99.90
16970;DHT22;8601;48.718;8.992;2022-07-21T01:04:12;19.70;99.90
16970;DHT22;8601;48.718;8.992;2022-07-21T01:06:46;19.70;99.90
16970;DHT22;8601;48.718;8.992;2022-07-21T01:09:14;19.70;99.90
16970;DHT22;8601;48.718;8.992;2022-07-21T01:11:41;19.70;99.90
16970;DHT22;8601;48.718;8.992;2022-07-21T01:14:10;19.60;99.90
16970;DHT22;8601;48.718;8.992;2022-07-21T01:16:37;19.60;99.90
16970;DHT22;8601;48.718;8.992;2022-07-21T01:19:05;19.60;99.90
16970;DHT22;8601;48.718;8.992;2022-07-21T01:21:35;19.70;99.90
16970;DHT22;8601;48.718;8.992;2022-07-21T01:24:04;19.70;99.90
16970;DHT22;8601;48.718;8.992;2022-07-21T01:26:40;19.70;99.90
16970;DHT22;8601;48.718;8.992;2022-07-21T01:29:07;19.50;99.90
16970;DHT22;8601;48.718;8.992;2022-07-21T01:31:35;19.50;99.90
16970;DHT22;8601;48.718;8.992;2022-07-21T01:34:03;19.50;99.90
16970;DHT22;8601;48.718;8.992;2022-07-21T01:36:31;19.50;99.90
16970;DHT22;8601;48.718;8.992;2022-07-21T01:38:59;19.50;99.90
16970;DHT22;8601;48.718;8.992;2022-07-21T01:41:44;19.50;99.90
16970;DHT22;8601;48.718;8.992;2022-07-21T01:44:12;19.50;99.90
16970;DHT22;8601;48.718;8.992;2022-07-21T01:46:41;19.60;99.90
16970;DHT22;8601;48.718;8.992;2022-07-21T01:49:10;19.60;99.90
16970;DHT22;8601;48.718;8.992;2022-07-21T01:51:37;19.50;99.90
16970;DHT22;8601;48.718;8.992;2022-07-21T01:54:07;19.40;99.90
16970;DHT22;8601;48.718;8.992;2022-07-21T01:56:36;19.40;99.90
16970;DHT22;8601;48.718;8.992;2022-07-21T01:59:04;19.30;99.90
16970;DHT22;8601;48.718;8.992;2022-07-21T02:01:32;19.30;99.90
16970;DHT22;8601;48.718;8.992;2022-07-21T02:04:00;19.30;99.90
16970;DHT22;8601;48.718;8.992;2022-07-21T02:06:28;19.30;99.90
16970;DHT22;8601;48.718;8.992;2022-07-21T02:08:56;19.20;99.90
16970;DHT22;8601;48.718;8.992;2022-07-21T02:11:24;19.10;99.90
16970;DHT22;8601;48.718;8.992;2022-07-21T02:13:51;19.20;99.90
16970;DHT22;8601;48.718;8.992;2022-07-21T02:16:18;19.30;99.90
16970;DHT22;8601;48.718;8.992;2022-07-21T02:18:46;19.20;99.90
16970;DHT22;8601;48.718;8.992;2022-07-21T02:21:13;19.30;99.90
16970;DHT22;8601;48.718;8.992;2022-07-21T02:23:41;19.30;99.90
16970;DHT22;8601;48.718;8.992;2022-07-21T02:26:08;19.20;99.90
16970;DHT22;8601;48.718;8.992;2022-07-21T02:28:36;19.20;99.90
16970;DHT22;8601;48.718;8.992;2022-07-21T02:31:03;19.30;99.90
16970;DHT22;8601;48.718;8.992;2022-07-21T02:33:30;19.20;99.90
16970;DHT22;8601;48.718;8.992;2022-07-21T02:35:57;19.10;99.90
16970;DHT22;8601;48.718;8.992;2022-07-21T02:38:24;19.10;99.90
16970;DHT22;8601;48.718;8.992;2022-07-21T02:40:51;19.10;99.90
16970;DHT22;8601;48.718;8.992;2022-07-21T02:43:18;19.20;99.90
16970;DHT22;8601;48.718;8.992;2022-07-21T02:45:53;19.20;99.90
16970;DHT22;8601;48.718;8.992;2022-07-21T02:48:20;19.20;99.90
16970;DHT22;8601;48.718;8.992;2022-07-21T02:50:46;19.20;99.90
16970;DHT22;8601;48.718;8.992;2022-07-21T02:53:16;19.20;99.90
16970;DHT22;8601;48.718;8.992;2022-07-21T02:55:45;19.10;99.90
16970;DHT22;8601;48.718;8.992;2022-07-21T02:58:15;19.10;99.90
16970;DHT22;8601;48.718;8.992;2022-07-21T03:00:44;19.20;99.90
16970;DHT22;8601;48.718;8.992;2022-07-21T03:03:13;19.20;99.90
16970;DHT22;8601;48.718;8.992;2022-07-21T03:05:40;19.20;99.90
16970;DHT22;8601;48.718;8.992;2022-07-21T03:08:09;19.20;99.90
16970;DHT22;8601;48.718;8.992;2022-07-21T03:10:36;19.20;99.90
16970;DHT22;8601;48.718;8.992;2022-07-21T03:13:04;19.20;99.90
16970;DHT22;8601;48.718;8.992;2022-07-21T03:15:32;19.10;99.90
16970;DHT22;8601;48.718;8.992;2022-07-21T03:17:58;19.20;99.90
16970;DHT22;8601;48.718;8.992;2022-07-21T03:20:28;19.10;99.90
16970;DHT22;8601;48.718;8.992;2022-07-21T03:22:56;19.10;99.90
16970;DHT22;8601;48.718;8.992;2022-07-21T03:25:24;19.10;99.90
16970;DHT22;8601;48.718;8.992;2022-07-21T03:27:51;19.10;99.90
16970;DHT22;8601;48.718;8.992;2022-07-21T03:30:18;19.20;99.90
16970;DHT22;8601;48.718;8.992;2022-07-21T03:32:45;19.10;99.90
16970;DHT22;8601;48.718;8.992;2022-07-21T03:35:13;19.10;99.90
16970;DHT22;8601;48.718;8.992;2022-07-21T03:37:42;19.00;99.90
16970;DHT22;8601;48.718;8.992;2022-07-21T03:40:12;19.00;99.90
16970;DHT22;8601;48.718;8.992;2022-07-21T03:42:39;19.00;99.90
16970;DHT22;8601;48.718;8.992;2022-07-21T03:45:08;19.00;99.90
16970;DHT22;8601;48.718;8.992;2022-07-21T03:47:36;19.00;99.90
16970;DHT22;8601;48.718;8.992;2022-07-21T03:50:04;19.10;99.90
16970;DHT22;8601;48.718;8.992;2022-07-21T03:52:32;19.10;99.90
16970;DHT22;8601;48.718;8.992;2022-07-21T03:55:00;19.10;99.90
16970;DHT22;8601;48.718;8.992;2022-07-21T03:57:41;19.10;99.90
16970;DHT22;8601;48.718;8.992;2022-07-21T04:00:11;19.10;99.90
16970;DHT22;8601;48.718;8.992;2022-07-21T04:02:39;19.00;99.90
16970;DHT22;8601;48.718;8.992;2022-07-21T04:05:08;19.00;99.90
16970;DHT22;8601;48.718;8.992;2022-07-21T04:07:38;18.90;99.90
16970;DHT22;8601;48.718;8.992;2022-07-21T04:10:07;18.90;99.90
16970;DHT22;8601;48.718;8.992;2022-07-21T04:12:34;18.70;99.90
16970;DHT22;8601;48.718;8.992;2022-07-21T04:15:02;18.70;99.90
16970;DHT22;8601;48.718;8.992;2022-07-21T04:17:30;18.80;99.90
16970;DHT22;8601;48.718;8.992;2022-07-21T04:19:56;18.90;99.90
16970;DHT22;8601;48.718;8.992;2022-07-21T04:22:24;18.80;99.90
16970;DHT22;8601;48.718;8.992;2022-07-21T04:24:51;18.80;99.90
16970;DHT22;8601;48.718;8.992;2022-07-21T04:27:19;18.90;99.90
16970;DHT22;8601;48.718;8.992;2022-07-21T04:29:46;18.90;99.90
16970;DHT22;8601;48.718;8.992;2022-07-21T04:32:13;18.80;99.90
16970;DHT22;8601;48.718;8.992;2022-07-21T04:34:41;18.70;99.90
16970;DHT22;8601;48.718;8.992;2022-07-21T04:37:08;18.80;99.90
16970;DHT22;8601;48.718;8.992;2022-07-21T04:39:35;18.80;99.90
16970;DHT22;8601;48.718;8.992;2022-07-21T04:42:02;18.80;99.90
16970;DHT22;8601;48.718;8.992;2022-07-21T04:44:31;18.90;99.90
16970;DHT22;8601;48.718;8.992;2022-07-21T04:46:58;18.80;99.90
16970;DHT22;8601;48.718;8.992;2022-07-21T04:49:26;18.80;99.90
16970;DHT22;8601;48.718;8.992;2022-07-21T04:51:53;18.80;99.90
16970;DHT22;8601;48.718;8.992;2022-07-21T04:54:19;18.70;99.90
16970;DHT22;8601;48.718;8.992;2022-07-21T04:56:48;18.70;99.90
16970;DHT22;8601;48.718;8.992;2022-07-21T04:59:16;18.70;99.90
16970;DHT22;8601;48.718;8.992;2022-07-21T05:01:44;18.70;99.90
16970;DHT22;8601;48.718;8.992;2022-07-21T05:04:11;18.70;99.90
16970;DHT22;8601;48.718;8.992;2022-07-21T05:06:38;18.70;99.90
16970;DHT22;8601;48.718;8.992;2022-07-21T05:09:05;18.70;99.90
16970;DHT22;8601;48.718;8.992;2022-07-21T05:11:32;18.80;99.90
16970;DHT22;8601;48.718;8.992;2022-07-21T05:13:58;18.90;99.90
16970;DHT22;8601;48.718;8.992;2022-07-21T05:16:25;18.80;99.90
16970;DHT22;8601;48.718;8.992;2022-07-21T05:18:54;18.80;99.90
16970;DHT22;8601;48.718;8.992;2022-07-21T05:21:21;18.80;99.90
16970;DHT22;8601;48.718;8.992;2022-07-21T05:23:49;19.00;99.90
16970;DHT22;8601;48.718;8.992;2022-07-21T05:26:16;19.50;99.90
16970;DHT22;8601;48.718;8.992;2022-07-21T05:28:42;19.60;99.90
16970;DHT22;8601;48.718;8.992;2022-07-21T05:31:09;19.50;99.90
16970;DHT22;8601;48.718;8.992;2022-07-21T05:33:36;19.30;99.90
16970;DHT22;8601;48.718;8.992;2022-07-21T05:36:05;19.30;99.90
16970;DHT22;8601;48.718;8.992;2022-07-21T05:38:33;19.20;99.90
16970;DHT22;8601;48.718;8.992;2022-07-21T05:40:59;19.30;99.90
16970;DHT22;8601;48.718;8.992;2022-07-21T05:43:29;19.30;99.90
16970;DHT22;8601;48.718;8.992;2022-07-21T05:45:56;19.20;99.90
16970;DHT22;8601;48.718;8.992;2022-07-21T05:48:23;19.20;99.90
16970;DHT22;8601;48.718;8.992;2022-07-21T05:50:51;19.20;99.90
16970;DHT22;8601;48.718;8.992;2022-07-21T05:53:19;19.30;99.90
16970;DHT22;8601;48.718;8.992;2022-07-21T05:55:46;19.30;99.90
16970;DHT22;8601;48.718;8.992;2022-07-21T05:58:13;19.20;99.90
16970;DHT22;8601;48.718;8.992;2022-07-21T06:00:41;19.20;99.90
16970;DHT22;8601;48.718;8.992;2022-07-21T06:03:08;19.20;99.90
16970;DHT22;8601;48.718;8.992;2022-07-21T06:05:36;19.20;99.90
16970;DHT22;8601;48.718;8.992;2022-07-21T06:08:03;19.40;99.90
16970;DHT22;8601;48.718;8.992;2022-07-21T06:10:31;19.40;99.90
16970;DHT22;8601;48.718;8.992;2022-07-21T06:12:58;19.40;99.90
16970;DHT22;8601;48.718;8.992;2022-07-21T06:15:25;19.40;99.90
16970;DHT22;8601;48.718;8.992;2022-07-21T06:17:52;19.40;99.90
16970;DHT22;8601;48.718;8.992;2022-07-21T06:20:19;19.60;99.90
16970;DHT22;8601;48.718;8.992;2022-07-21T06:22:46;19.60;99.90
16970;DHT22;8601;48.718;8.992;2022-07-21T06:25:13;19.70;99.90
16970;DHT22;8601;48.718;8.992;2022-07-21T06:27:41;19.70;99.90
16970;DHT22;8601;48.718;8.992;2022-07-21T06:30:10;19.80;99.90
16970;DHT22;8601;48.718;8.992;2022-07-21T06:32:37;19.90;99.90
16970;DHT22;8601;48.718;8.992;2022-07-21T06:35:06;19.80;99.90
16970;DHT22;8601;48.718;8.992;2022-07-21T06:37:33;19.90;99.90
16970;DHT22;8601;48.718;8.992;2022-07-21T06:40:00;20.00;99.90
16970;DHT22;8601;48.718;8.992;2022-07-21T06:42:27;20.10;99.90
16970;DHT22;8601;48.718;8.992;2022-07-21T06:44:55;20.10;99.90
16970;DHT22;8601;48.718;8.992;2022-07-21T06:47:22;20.10;99.90
16970;DHT22;8601;48.718;8.992;2022-07-21T06:49:49;20.10;99.90
16970;DHT22;8601;48.718;8.992;2022-07-21T06:52:16;20.10;99.90
16970;DHT22;8601;48.718;8.992;2022-07-21T06:54:43;20.20;99.90
16970;DHT22;8601;48.718;8.992;2022-07-21T06:57:10;20.10;99.90
16970;DHT22;8601;48.718;8.992;2022-07-21T06:59:37;20.20;99.90
16970;DHT22;8601;48.718;8.992;2022-07-21T07:02:06;20.30;99.90
16970;DHT22;8601;48.718;8.992;2022-07-21T07:04:33;20.30;99.90
16970;DHT22;8601;48.718;8.992;2022-07-21T07:07:00;20.30;99.90
16970;DHT22;8601;48.718;8.992;2022-07-21T07:09:27;20.40;99.90
16970;DHT22;8601;48.718;8.992;2022-07-21T07:11:54;20.40;99.90
16970;DHT22;8601;48.718;8.992;2022-07-21T07:14:28;20.40;99.90
16970;DHT22;8601;48.718;8.992;2022-07-21T07:16:56;20.50;99.90
16970;DHT22;8601;48.718;8.992;2022-07-21T07:19:24;20.60;99.90
16970;DHT22;8601;48.718;8.992;2022-07-21T07:21:51;20.60;99.90
16970;DHT22;8601;48.718;8.992;2022-07-21T07:24:18;20.80;99.90
16970;DHT22;8601;48.718;8.992;2022-07-21T07:26:45;20.90;99.90
16970;DHT22;8601;48.718;8.992;2022-07-21T07:29:13;20.80;99.90
16970;DHT22;8601;48.718;8.992;2022-07-21T07:31:41;21.00;99.90
16970;DHT22;8601;48.718;8.992;2022-07-21T07:34:08;20.90;99.90
16970;DHT22;8601;48.718;8.992;2022-07-21T07:36:36;21.00;99.90
16970;DHT22;8601;48.718;8.992;2022-07-21T07:39:04;21.10;99.90
16970;DHT22;8601;48.718;8.992;2022-07-21T07:41:31;21.20;99.90
16970;DHT22;8601;48.718;8.992;2022-07-21T07:43:58;21.20;99.90
16970;DHT22;8601;48.718;8.992;2022-07-21T07:46:26;21.20;99.90
16970;DHT22;8601;48.718;8.992;2022-07-21T07:48:53;21.00;99.90
16970;DHT22;8601;48.718;8.992;2022-07-21T07:51:21;21.10;99.90
16970;DHT22;8601;48.718;8.992;2022-07-21T07:53:49;21.00;99.90
16970;DHT22;8601;48.718;8.992;2022-07-21T07:56:16;21.00;99.90
16970;DHT22;8601;48.718;8.992;2022-07-21T07:58:43;20.90;99.90
16970;DHT22;8601;48.718;8.992;2022-07-21T08:01:11;20.90;99.90
16970;DHT22;8601;48.718;8.992;2022-07-21T08:03:38;21.00;99.90
16970;DHT22;8601;48.718;8.992;2022-07-21T08:06:05;21.10;99.90
16970;DHT22;8601;48.718;8.992;2022-07-21T08:08:33;21.30;99.90
16970;DHT22;8601;48.718;8.992;2022-07-21T08:11:03;21.30;99.90
16970;DHT22;8601;48.718;8.992;2022-07-21T08:13:30;21.40;99.90
16970;DHT22;8601;48.718;8.992;2022-07-21T08:15:57;21.30;99.90
16970;DHT22;8601;48.718;8.992;2022-07-21T08:18:24;21.70;99.90
16970;DHT22;8601;48.718;8.992;2022-07-21T08:20:52;21.90;99.90
16970;DHT22;8601;48.718;8.992;2022-07-21T08:23:19;22.00;99.90
16970;DHT22;8601;48.718;8.992;2022-07-21T08:25:46;22.10;99.90
16970;DHT22;8601;48.718;8.992;2022-07-21T08:28:14;22.10;99.90
16970;DHT22;8601;48.718;8.992;2022-07-21T08:30:42;22.10;99.90
16970;DHT22;8601;48.718;8.992;2022-07-21T08:33:09;22.20;99.90
16970;DHT22;8601;48.718;8.992;2022-07-21T08:35:36;22.30;99.90
16970;DHT22;8601;48.718;8.992;2022-07-21T08:38:05;22.40;99.90
16970;DHT22;8601;48.718;8.992;2022-07-21T08:40:34;22.30;99.90
16970;DHT22;8601;48.718;8.992;2022-07-21T08:43:02;22.20;99.90
16970;DHT22;8601;48.718;8.992;2022-07-21T08:45:30;22.20;99.90
16970;DHT22;8601;48.718;8.992;2022-07-21T08:47:59;22.20;99.90
16970;DHT22;8601;48.718;8.992;2022-07-21T08:50:27;22.20;99.90
16970;DHT22;8601;48.718;8.992;2022-07-21T08:52:55;22.30;99.90
16970;DHT22;8601;48.718;8.992;2022-07-21T08:55:22;22.40;99.90
16970;DHT22;8601;48.718;8.992;2022-07-21T08:57:50;22.50;99.90
16970;DHT22;8601;48.718;8.992;2022-07-21T09:00:17;22.40;99.90
16970;DHT22;8601;48.718;8.992;2022-07-21T09:02:45;22.50;99.90
16970;DHT22;8601;48.718;8.992;2022-07-21T09:05:13;22.50;99.90
16970;DHT22;8601;48.718;8.992;2022-07-21T09:07:47;22.40;99.90
16970;DHT22;8601;48.718;8.992;2022-07-21T09:10:15;22.70;99.90
16970;DHT22;8601;48.718;8.992;2022-07-21T09:12:51;22.90;99.90
16970;DHT22;8601;48.718;8.992;2022-07-21T09:15:20;23.20;99.90
16970;DHT22;8601;48.718;8.992;2022-07-21T09:18:12;23.40;99.80
16970;DHT22;8601;48.718;8.992;2022-07-21T09:20:50;23.60;96.80
16970;DHT22;8601;48.718;8.992;2022-07-21T09:23:18;23.70;93.90
16970;DHT22;8601;48.718;8.992;2022-07-21T09:25:47;23.80;95.80
16970;DHT22;8601;48.718;8.992;2022-07-21T09:28:15;23.60;93.90
16970;DHT22;8601;48.718;8.992;2022-07-21T09:30:57;23.60;96.80
16970;DHT22;8601;48.718;8.992;2022-07-21T09:33:30;23.80;92.90
16970;DHT22;8601;48.718;8.992;2022-07-21T09:36:00;24.10;93.50
16970;DHT22;8601;48.718;8.992;2022-07-21T09:38:29;24.50;90.50
16970;DHT22;8601;48.718;8.992;2022-07-21T09:41:04;24.80;92.00
16970;DHT22;8601;48.718;8.992;2022-07-21T09:43:34;25.00;91.10
16970;DHT22;8601;48.718;8.992;2022-07-21T09:46:12;25.00;84.10
16970;DHT22;8601;48.718;8.992;2022-07-21T09:48:43;25.20;87.00
16970;DHT22;8601;48.718;8.992;2022-07-21T09:51:25;25.30;86.00
16970;DHT22;8601;48.718;8.992;2022-07-21T09:53:55;25.50;89.20
16970;DHT22;8601;48.718;8.992;2022-07-21T09:56:23;25.80;78.20
16970;DHT22;8601;48.718;8.992;2022-07-21T09:58:52;25.60;82.80
16970;DHT22;8601;48.718;8.992;2022-07-21T10:01:20;25.40;78.20
16970;DHT22;8601;48.718;8.992;2022-07-21T10:03:49;25.40;74.80
16970;DHT22;8601;48.718;8.992;2022-07-21T10:06:19;25.60;78.50
16970;DHT22;8601;48.718;8.992;2022-07-21T10:08:46;25.30;73.40
16970;DHT22;8601;48.718;8.992;2022-07-21T10:11:14;25.00;78.20
16970;DHT22;8601;48.718;8.992;2022-07-21T10:13:41;24.80;74.80
16970;DHT22;8601;48.718;8.992;2022-07-21T10:16:10;25.00;80.20
16970;DHT22;8601;48.718;8.992;2022-07-21T10:18:47;25.40;71.90
16970;DHT22;8601;48.718;8.992;2022-07-21T10:21:42;25.70;75.30
16970;DHT22;8601;48.718;8.992;2022-07-21T10:24:12;25.50;75.70
16970;DHT22;8601;48.718;8.992;2022-07-21T10:26:59;25.20;76.60
16970;DHT22;8601;48.718;8.992;2022-07-21T10:29:50;25.00;75.40
16970;DHT22;8601;48.718;8.992;2022-07-21T10:32:20;24.70;73.80
16970;DHT22;8601;48.718;8.992;2022-07-21T10:34:48;24.50;75.70
16970;DHT22;8601;48.718;8.992;2022-07-21T10:37:45;24.90;73.40
16970;DHT22;8601;48.718;8.992;2022-07-21T10:40:35;25.50;69.60
16970;DHT22;8601;48.718;8.992;2022-07-21T10:43:38;26.00;70.80
16970;DHT22;8601;48.718;8.992;2022-07-21T10:46:34;26.40;70.80
16970;DHT22;8601;48.718;8.992;2022-07-21T10:49:03;26.60;67.70
16970;DHT22;8601;48.718;8.992;2022-07-21T10:51:33;26.60;67.70
16970;DHT22;8601;48.718;8.992;2022-07-21T10:54:25;26.80;64.40
16970;DHT22;8601;48.718;8.992;2022-07-21T10:57:27;26.80;61.10
16970;DHT22;8601;48.718;8.992;2022-07-21T11:00:27;26.90;62.90
16970;DHT22;8601;48.718;8.992;2022-07-21T11:02:56;26.40;62.20
16970;DHT22;8601;48.718;8.992;2022-07-21T11:05:26;26.20;68.30
16970;DHT22;8601;48.718;8.992;2022-07-21T11:08:14;26.50;67.60
16970;DHT22;8601;48.718;8.992;2022-07-21T11:10:45;26.50;64.50
16970;DHT22;8601;48.718;8.992;2022-07-21T11:13:13;26.70;66.90
16970;DHT22;8601;48.718;8.992;2022-07-21T11:15:53;26.50;67.30
16970;DHT22;8601;48.718;8.992;2022-07-21T11:18:24;26.80;63.70
16970;DHT22;8601;48.718;8.992;2022-07-21T11:21:01;27.10;63.60
16970;DHT22;8601;48.718;8.992;2022-07-21T11:23:37;27.20;60.70
16970;DHT22;8601;48.718;8.992;2022-07-21T11:26:05;26.90;63.10
16970;DHT22;8601;48.718;8.992;2022-07-21T11:28:32;27.10;65.00
16970;DHT22;8601;48.718;8.992;2022-07-21T11:31:11;27.30;61.50
16970;DHT22;8601;48.718;8.992;2022-07-21T11:33:39;27.20;59.40
16970;DHT22;8601;48.718;8.992;2022-07-21T11:36:07;27.20;60.20
16970;DHT22;8601;48.718;8.992;2022-07-21T11:38:34;27.00;60.90
16970;DHT22;8601;48.718;8.992;2022-07-21T11:41:15;26.80;60.00
16970;DHT22;8601;48.718;8.992;2022-07-21T11:43:44;26.60;62.50
16970;DHT22;8601;48.718;8.992;2022-07-21T11:46:11;26.70;65.40
16970;DHT22;8601;48.718;8.992;2022-07-21T11:48:39;26.90;59.50
16970;DHT22;8601;48.718;8.992;2022-07-21T11:51:06;27.10;62.80
16970;DHT22;8601;48.718;8.992;2022-07-21T11:53:34;27.60;64.00
16970;DHT22;8601;48.718;8.992;2022-07-21T11:56:14;27.80;59.40
16970;DHT22;8601;48.718;8.992;2022-07-21T11:58:42;27.70;58.80
16970;DHT22;8601;48.718;8.992;2022-07-21T12:01:09;27.50;61.40
16970;DHT22;8601;48.718;8.992;2022-07-21T12:03:47;27.20;58.50
16970;DHT22;8601;48.718;8.992;2022-07-21T12:06:15;27.00;60.90
16970;DHT22;8601;48.718;8.992;2022-07-21T12:08:43;26.80;63.70
16970;DHT22;8601;48.718;8.992;2022-07-21T12:11:11;26.90;59.20
16970;DHT22;8601;48.718;8.992;2022-07-21T12:13:57;26.90;59.90
16970;DHT22;8601;48.718;8.992;2022-07-21T12:16:24;27.10;61.30
16970;DHT22;8601;48.718;8.992;2022-07-21T12:19:09;26.90;61.40
16970;DHT22;8601;48.718;8.992;2022-07-21T12:21:44;26.80;63.60
16970;DHT22;8601;48.718;8.992;2022-07-21T12:24:11;26.60;66.70
16970;DHT22;8601;48.718;8.992;2022-07-21T12:26:38;26.60;67.70
16970;DHT22;8601;48.718;8.992;2022-07-21T12:29:07;26.40;72.00
16970;DHT22;8601;48.718;8.992;2022-07-21T12:31:41;26.20;67.90
16970;DHT22;8601;48.718;8.992;2022-07-21T12:34:12;26.50;75.30
16970;DHT22;8601;48.718;8.992;2022-07-21T12:36:41;26.90;66.70
16970;DHT22;8601;48.718;8.992;2022-07-21T12:39:20;27.20;63.10
16970;DHT22;8601;48.718;8.992;2022-07-21T12:42:06;27.60;66.70
16970;DHT22;8601;48.718;8.992;2022-07-21T12:44:35;27.70;63.40
16970;DHT22;8601;48.718;8.992;2022-07-21T12:47:17;27.50;61.90
16970;DHT22;8601;48.718;8.992;2022-07-21T12:50:02;27.70;64.20
16970;DHT22;8601;48.718;8.992;2022-07-21T12:52:29;28.00;64.00
16970;DHT22;8601;48.718;8.992;2022-07-21T12:54:57;27.90;60.80
16970;DHT22;8601;48.718;8.992;2022-07-21T12:57:28;27.90;64.00
16970;DHT22;8601;48.718;8.992;2022-07-21T12:59:57;27.70;63.50
16970;DHT22;8601;48.718;8.992;2022-07-21T13:02:24;27.60;63.70
16970;DHT22;8601;48.718;8.992;2022-07-21T13:04:54;27.40;63.50
16970;DHT22;8601;48.718;8.992;2022-07-21T13:07:21;27.30;67.60
16970;DHT22;8601;48.718;8.992;2022-07-21T13:09:47;27.10;64.50
16970;DHT22;8601;48.718;8.992;2022-07-21T13:12:14;27.20;67.70
16970;DHT22;8601;48.718;8.992;2022-07-21T13:14:42;27.20;64.70
16970;DHT22;8601;48.718;8.992;2022-07-21T13:17:11;27.00;66.30
16970;DHT22;8601;48.718;8.992;2022-07-21T13:19:38;26.90;66.90
16970;DHT22;8601;48.718;8.992;2022-07-21T13:22:05;26.70;66.50
16970;DHT22;8601;48.718;8.992;2022-07-21T13:24:32;26.40;67.10
16970;DHT22;8601;48.718;8.992;2022-07-21T13:26:59;26.30;70.00
16970;DHT22;8601;48.718;8.992;2022-07-21T13:29:26;26.30;69.80
16970;DHT22;8601;48.718;8.992;2022-07-21T13:31:53;26.30;69.40
16970;DHT22;8601;48.718;8.992;2022-07-21T13:34:21;26.30;69.90
16970;DHT22;8601;48.718;8.992;2022-07-21T13:36:48;26.50;72.00
16970;DHT22;8601;48.718;8.992;2022-07-21T13:39:15;26.70;69.60
16970;DHT22;8601;48.718;8.992;2022-07-21T13:41:43;26.70;65.40
16970;DHT22;8601;48.718;8.992;2022-07-21T13:44:10;26.60;70.20
16970;DHT22;8601;48.718;8.992;2022-07-21T13:46:37;26.70;68.20
16970;DHT22;8601;48.718;8.992;2022-07-21T13:49:04;26.80;70.00
16970;DHT22;8601;48.718;8.992;2022-07-21T13:51:32;26.80;67.90
16970;DHT22;8601;48.718;8.992;2022-07-21T13:53:59;26.90;65.40
16970;DHT22;8601;48.718;8.992;2022-07-21T13:56:26;27.20;66.90
16970;DHT22;8601;48.718;8.992;2022-07-21T13:58:53;27.70;64.10
16970;DHT22;8601;48.718;8.992;2022-07-21T14:01:20;27.80;61.10
16970;DHT22;8601;48.718;8.992;2022-07-21T14:03:48;27.60;66.20
16970;DHT22;8601;48.718;8.992;2022-07-21T14:06:15;27.50;68.40
16970;DHT22;8601;48.718;8.992;2022-07-21T14:08:44;27.30;67.70
16970;DHT22;8601;48.718;8.992;2022-07-21T14:11:12;27.20;65.60
16970;DHT22;8601;48.718;8.992;2022-07-21T14:13:40;27.30;65.80
16970;DHT22;8601;48.718;8.992;2022-07-21T14:16:07;27.60;67.10
16970;DHT22;8601;48.718;8.992;2022-07-21T14:18:34;27.80;62.60
16970;DHT22;8601;48.718;8.992;2022-07-21T14:21:02;28.00;62.00
16970;DHT22;8601;48.718;8.992;2022-07-21T14:23:29;27.80;60.70
16970;DHT22;8601;48.718;8.992;2022-07-21T14:25:58;27.50;62.70
16970;DHT22;8601;48.718;8.992;2022-07-21T14:28:26;27.30;64.40
16970;DHT22;8601;48.718;8.992;2022-07-21T14:30:53;27.00;60.90
16970;DHT22;8601;48.718;8.992;2022-07-21T14:33:21;26.80;65.10
16970;DHT22;8601;48.718;8.992;2022-07-21T14:35:47;26.70;66.30
16970;DHT22;8601;48.718;8.992;2022-07-21T14:38:14;26.60;63.40
16970;DHT22;8601;48.718;8.992;2022-07-21T14:40:43;26.50;63.60
16970;DHT22;8601;48.718;8.992;2022-07-21T14:43:12;26.50;66.00
16970;DHT22;8601;48.718;8.992;2022-07-21T14:45:39;26.40;65.40
16970;DHT22;8601;48.718;8.992;2022-07-21T14:48:06;26.50;68.10
16970;DHT22;8601;48.718;8.992;2022-07-21T14:50:34;26.60;65.60
16970;DHT22;8601;48.718;8.992;2022-07-21T14:53:03;26.70;63.70
16970;DHT22;8601;48.718;8.992;2022-07-21T14:55:32;26.90;63.80
16970;DHT22;8601;48.718;8.992;2022-07-21T14:57:59;27.00;62.80
16970;DHT22;8601;48.718;8.992;2022-07-21T15:00:28;27.10;66.60
16970;DHT22;8601;48.718;8.992;2022-07-21T15:02:54;27.00;63.40
16970;DHT22;8601;48.718;8.992;2022-07-21T15:05:22;26.90;63.40
16970;DHT22;8601;48.718;8.992;2022-07-21T15:07:49;26.80;63.30
16970;DHT22;8601;48.718;8.992;2022-07-21T15:10:16;26.90;65.60
16970;DHT22;8601;48.718;8.992;2022-07-21T15:12:43;26.80;71.10
16970;DHT22;8601;48.718;8.992;2022-07-21T15:15:10;26.70;63.70
16970;DHT22;8601;48.718;8.992;2022-07-21T15:17:38;26.80;64.20
16970;DHT22;8601;48.718;8.992;2022-07-21T15:20:07;26.70;63.30
16970;DHT22;8601;48.718;8.992;2022-07-21T15:22:34;26.50;68.00
16970;DHT22;8601;48.718;8.992;2022-07-21T15:25:02;26.50;67.60
16970;DHT22;8601;48.718;8.992;2022-07-21T15:27:35;26.40;67.90
16970;DHT22;8601;48.718;8.992;2022-07-21T15:30:04;26.30;68.80
16970;DHT22;8601;48.718;8.992;2022-07-21T15:32:31;26.20;65.90
16970;DHT22;8601;48.718;8.992;2022-07-21T15:35:00;26.20;68.10
16970;DHT22;8601;48.718;8.992;2022-07-21T15:37:27;26.20;67.60
16970;DHT22;8601;48.718;8.992;2022-07-21T15:39:54;26.10;65.10
16970;DHT22;8601;48.718;8.992;2022-07-21T15:42:21;26.10;67.10
16970;DHT22;8601;48.718;8.992;2022-07-21T15:44:49;26.10;65.60
16970;DHT22;8601;48.718;8.992;2022-07-21T15:47:16;26.10;63.30
16970;DHT22;8601;48.718;8.992;2022-07-21T15:49:44;26.10;64.40
16970;DHT22;8601;48.718;8.992;2022-07-21T15:52:15;26.10;62.10
16970;DHT22;8601;48.718;8.992;2022-07-21T15:54:42;26.20;66.80
16970;DHT22;8601;48.718;8.992;2022-07-21T15:57:09;26.20;66.90